Aérodrome :
LOGIN :

S'inscrire | Disclaimer

   EN    FR    IT 

 










Légende :    VFR   VFR Marginal   IFR   IFR Intensif   IFR Très Intensif
Visi : 
Plafond : 
>= 8 km
>= 3000ft
5 à 8 km
1000 à 3000 ft
1500m à 5 km
500 à 1000 ft
800 à 1500m
200 à 500 ft
< 800m
< 200 ft
Symboles :   Orages  Brouillard  Fortes neiges  Fortes précipitations  Vent > 20 kt
SIGMETs :   Divers  Orages  Givrage  Turbulence  Onde Orograph.  Cendres Volcan.







- Altitude de l'aérodrome : 119 ft
- Code IATA : WAT


EIWF - Waterford

DERNIER METAR :
  • 200830Z 26005KT 210V290 CAVOK 07/05 Q1006

METARs EXPIRÉS :
  • 200800Z VRB01KT CAVOK 06/04 Q1006
  • 200730Z VRB03KT CAVOK 06/04 Q1005
  • 200700Z 27005KT 220V300 CAVOK 06/05 Q1005
  • 200630Z 28007KT 250V310 CAVOK 06/04 Q1005

TAF TAF EIWF
Valide du 20 à 09h jusqu'au 20 à 18h UTC


200800Z 2009/2018 25005KT 9999 SCT020
BECMG 2009/2012 16014KT
BECMG 2012/2014 16022G35KT -RA SCT008 BKN015
TEMPO 2014/2018 16025G40KT 4000 RA BKN008 SCT020CB
ATIS : +353 51 877 000
Pas de NOTAMs connus pour ce terrain.



MET'MAP, la Météo Aéronautique d'un coup d'oeil ! - Copyright ORBIFLY Décembre 2007 - Disclaimer

ORBIFLY MET'MAP TEAM :

Programmation & Développement : Alexandra Zaïnal
Conception & Développement : Baudouin d'Aumeries
Co-Programmation & Développement : Marc-Olivier Méhu
Soutien technique & logistique : Manuel Goepfert

Contact : metmap@orbifly.com




SOURCES & CREDITS :

   NOAA